Time;durP1;ratioP1;P1;durP2;ratioP2;P2;SDS_P1;SDS_P2;PMS_P1;PMS_P2;Temp;Humidity;BMP_temperature;BMP_pressure;BME280_temperature;BME280_humidity;BME280_pressure;Samples;Min_cycle;Max_cycle;Signal;HPM_P1;HPM_P2
2023/01/27 00:00:41;;;;;;;17.40;9.37;;;3.20;99.90;;;;;;5083121;28;20407;-62
2023/01/27 00:03:11;;;;;;;18.85;10.15;;;3.20;99.90;;;;;;5081454;28;20426;-62
2023/01/27 00:05:38;;;;;;;17.52;10.38;;;3.20;99.90;;;;;;5076110;28;20463;-61
2023/01/27 00:08:06;;;;;;;21.13;10.80;;;3.20;99.90;;;;;;5077303;28;20416;-59
2023/01/27 00:10:32;;;;;;;17.05;9.85;;;3.10;99.90;;;;;;5073316;28;20420;-59
2023/01/27 00:15:43;;;;;;;20.38;10.85;;;3.10;99.90;;;;;;5077596;28;20405;-60
2023/01/27 00:18:11;;;;;;;20.90;10.48;;;3.10;99.90;;;;;;5079840;28;20825;-61
2023/01/27 00:26:10;;;;;;;21.48;10.80;;;3.10;99.90;;;;;;5076951;28;20909;-59
2023/01/27 00:28:39;;;;;;;20.65;9.65;;;3.10;99.90;;;;;;5083644;28;20418;-61
2023/01/27 00:33:48;;;;;;;20.10;11.45;;;3.10;99.90;;;;;;5017150;28;20432;-62
2023/01/27 00:36:15;;;;;;;23.15;11.77;;;3.10;99.90;;;;;;5078245;28;20514;-61
2023/01/27 00:38:42;;;;;;;24.92;12.23;;;3.10;99.90;;;;;;5082582;28;20954;-61
2023/01/27 00:41:18;;;;;;;17.10;8.60;;;3.00;99.90;;;;;;5078862;28;20419;-60
2023/01/27 00:43:45;;;;;;;23.73;9.93;;;3.00;99.90;;;;;;5079687;28;20465;-62
2023/01/27 00:46:12;;;;;;;20.42;9.70;;;3.00;99.90;;;;;;5078019;28;20445;-61
2023/01/27 00:48:39;;;;;;;16.10;9.07;;;3.00;99.90;;;;;;5080927;28;20886;-60
2023/01/27 00:51:06;;;;;;;17.70;9.93;;;3.00;99.90;;;;;;5080606;28;20895;-60
2023/01/27 00:53:33;;;;;;;21.33;10.13;;;3.10;99.90;;;;;;5079926;28;20428;-63
2023/01/27 00:56:01;;;;;;;16.73;8.60;;;3.10;99.90;;;;;;5076841;28;20428;-60
2023/01/27 00:58:28;;;;;;;17.08;9.30;;;3.00;99.90;;;;;;5082700;28;20897;-62
2023/01/27 01:00:55;;;;;;;18.40;9.80;;;3.10;99.90;;;;;;5078540;28;20418;-59
2023/01/27 01:03:23;;;;;;;16.85;9.35;;;3.10;99.90;;;;;;5082007;28;20410;-60
2023/01/27 01:05:49;;;;;;;21.42;9.85;;;3.10;99.90;;;;;;5071249;28;20469;-62
2023/01/27 01:08:17;;;;;;;19.80;10.07;;;3.00;99.90;;;;;;5078974;28;20464;-62
2023/01/27 01:10:44;;;;;;;17.83;9.57;;;3.10;99.90;;;;;;5079022;28;20472;-62
2023/01/27 01:13:12;;;;;;;19.40;9.63;;;3.10;99.90;;;;;;5081345;28;20867;-64
2023/01/27 01:15:39;;;;;;;17.92;9.80;;;3.10;99.90;;;;;;5077530;28;21125;-61
2023/01/27 01:18:06;;;;;;;16.77;9.82;;;3.10;99.90;;;;;;5069580;28;20495;-61
2023/01/27 01:20:37;;;;;;;17.48;8.80;;;3.10;99.90;;;;;;5078729;28;20590;-60
2023/01/27 01:23:04;;;;;;;22.20;10.50;;;3.00;99.90;;;;;;5074518;28;20919;-61
2023/01/27 01:25:31;;;;;;;15.82;8.95;;;3.00;99.90;;;;;;5081746;28;20410;-59
2023/01/27 01:27:58;;;;;;;25.98;11.98;;;2.90;99.90;;;;;;5078548;28;20421;-59
2023/01/27 01:30:26;;;;;;;23.55;13.20;;;2.90;99.90;;;;;;5080855;28;20415;-58
2023/01/27 01:32:53;;;;;;;28.38;14.85;;;2.90;99.90;;;;;;5078808;28;20417;-57
2023/01/27 01:35:20;;;;;;;23.90;13.15;;;2.80;99.90;;;;;;5080323;28;20415;-58
2023/01/27 01:37:47;;;;;;;30.40;16.00;;;2.80;99.90;;;;;;5079260;28;20765;-60
2023/01/27 01:40:14;;;;;;;27.63;14.82;;;2.80;99.90;;;;;;5079687;28;20454;-60
2023/01/27 01:42:58;;;;;;;22.30;8.90;;;2.70;99.90;;;;;;5079146;28;20415;-59
2023/01/27 01:45:46;;;;;;;24.13;13.20;;;2.70;99.90;;;;;;5075841;28;20409;-59
2023/01/27 01:48:17;;;;;;;23.58;13.18;;;2.70;99.90;;;;;;5077359;28;20469;-59
2023/01/27 01:50:50;;;;;;;23.98;12.80;;;2.60;99.90;;;;;;5071997;28;20415;-61
2023/01/27 01:53:17;;;;;;;20.48;12.13;;;2.60;99.90;;;;;;5079376;28;20987;-59
2023/01/27 01:55:45;;;;;;;17.05;9.52;;;2.60;99.90;;;;;;5079271;28;20431;-61
2023/01/27 01:58:14;;;;;;;14.37;7.53;;;2.60;99.90;;;;;;5078756;28;20469;-61
2023/01/27 02:00:42;;;;;;;14.80;8.60;;;2.50;99.90;;;;;;5068711;28;20470;-62
2023/01/27 02:03:09;;;;;;;12.77;6.93;;;2.50;99.90;;;;;;5079488;28;20825;-61
2023/01/27 02:05:40;;;;;;;17.27;9.32;;;2.50;99.90;;;;;;5077150;28;20469;-62
2023/01/27 02:08:14;;;;;;;16.55;9.00;;;2.40;99.90;;;;;;5077820;28;20424;-62
2023/01/27 02:10:41;;;;;;;16.85;8.55;;;2.40;99.90;;;;;;5074063;28;20424;-62
2023/01/27 02:13:07;;;;;;;17.40;9.60;;;2.40;99.90;;;;;;5077191;28;20423;-61
2023/01/27 02:15:34;;;;;;;18.88;10.73;;;2.30;99.90;;;;;;5076757;28;20423;-63
2023/01/27 02:18:03;;;;;;;21.88;12.38;;;2.30;99.90;;;;;;5071717;28;20417;-61
2023/01/27 02:20:37;;;;;;;24.65;12.52;;;2.30;99.90;;;;;;5078105;28;20521;-61
2023/01/27 02:23:13;;;;;;;26.73;12.52;;;2.20;99.90;;;;;;5075131;28;20445;-59
2023/01/27 02:25:48;;;;;;;26.52;14.18;;;2.20;99.90;;;;;;5077269;28;20403;-62
2023/01/27 02:28:15;;;;;;;25.73;12.85;;;2.20;99.90;;;;;;5076253;28;20418;-62
2023/01/27 02:30:42;;;;;;;29.20;14.55;;;2.30;99.90;;;;;;5080419;28;20460;-58
2023/01/27 02:33:11;;;;;;;29.52;14.98;;;2.30;99.90;;;;;;5077713;28;20447;-60
2023/01/27 02:35:43;;;;;;;26.08;12.75;;;2.20;99.90;;;;;;5079754;28;20774;-59
2023/01/27 02:38:12;;;;;;;28.52;14.52;;;2.20;99.90;;;;;;5077690;28;20807;-60
2023/01/27 02:40:40;;;;;;;28.65;13.88;;;2.10;99.90;;;;;;5076955;28;20883;-60
2023/01/27 02:43:08;;;;;;;28.38;14.32;;;2.20;99.90;;;;;;5074537;28;20460;-60
2023/01/27 02:45:35;;;;;;;30.20;15.50;;;2.20;99.90;;;;;;5074425;28;20427;-63
2023/01/27 02:48:01;;;;;;;27.05;12.45;;;2.20;99.90;;;;;;5077687;28;20418;-58
2023/01/27 02:50:28;;;;;;;29.03;14.10;;;2.20;99.90;;;;;;5078817;28;20416;-60
2023/01/27 02:52:55;;;;;;;30.42;15.10;;;2.20;99.90;;;;;;5079519;28;20547;-65
2023/01/27 02:55:21;;;;;;;29.60;13.73;;;2.10;99.90;;;;;;5077438;28;20419;-60
2023/01/27 02:57:48;;;;;;;18.48;8.75;;;2.10;99.90;;;;;;5078182;28;20489;-61
2023/01/27 03:00:17;;;;;;;24.55;13.75;;;2.10;99.90;;;;;;5079270;28;20411;-58
2023/01/27 03:02:43;;;;;;;25.70;12.65;;;2.10;99.90;;;;;;5073087;28;20411;-64
2023/01/27 03:05:10;;;;;;;28.48;13.48;;;2.10;99.90;;;;;;5079720;28;21340;-61
2023/01/27 03:07:36;;;;;;;26.77;12.30;;;2.10;99.90;;;;;;5077365;28;20415;-60
2023/01/27 03:10:03;;;;;;;26.40;13.23;;;2.20;99.90;;;;;;5080151;28;20471;-64
2023/01/27 03:12:30;;;;;;;24.35;11.90;;;2.10;99.90;;;;;;5077257;28;20408;-59
2023/01/27 03:20:27;;;;;;;22.30;11.52;;;2.20;99.90;;;;;;5077098;28;20776;-59
2023/01/27 03:22:53;;;;;;;22.00;10.43;;;2.20;99.90;;;;;;5083986;28;20409;-61
2023/01/27 03:25:20;;;;;;;21.35;10.40;;;2.20;99.90;;;;;;5081118;28;20433;-62
2023/01/27 03:27:46;;;;;;;20.65;10.48;;;2.20;99.90;;;;;;5084594;28;20453;-61
2023/01/27 03:30:13;;;;;;;19.90;9.88;;;2.30;99.90;;;;;;5081039;28;20473;-62
2023/01/27 03:32:45;;;;;;;21.65;10.10;;;2.40;99.90;;;;;;5078471;28;20461;-63
2023/01/27 03:35:12;;;;;;;19.23;9.95;;;2.30;99.90;;;;;;5086228;28;20410;-62
2023/01/27 03:48:38;;;;;;;19.98;9.48;;;2.30;99.90;;;;;;5080523;28;20439;-61
2023/01/27 03:51:07;;;;;;;24.05;11.50;;;2.30;99.90;;;;;;5077960;28;20471;-59
2023/01/27 03:53:34;;;;;;;25.90;11.65;;;2.20;99.90;;;;;;5082496;28;20423;-59
2023/01/27 03:56:01;;;;;;;20.98;10.75;;;2.30;99.90;;;;;;5081213;28;20421;-61
2023/01/27 03:58:30;;;;;;;24.75;12.07;;;2.30;99.90;;;;;;5072317;28;20469;-62
2023/01/27 04:00:59;;;;;;;27.63;13.05;;;2.30;99.90;;;;;;5083160;28;20530;-62
2023/01/27 04:09:00;;;;;;;27.37;13.83;;;2.40;99.90;;;;;;5079891;28;20461;-59
2023/01/27 04:14:13;;;;;;;33.38;14.05;;;2.30;99.90;;;;;;5080568;28;20828;-61
2023/01/27 04:16:39;;;;;;;34.65;15.15;;;2.30;99.90;;;;;;5078565;28;20432;-62
2023/01/27 04:19:08;;;;;;;32.33;15.30;;;2.30;99.90;;;;;;5081774;28;20418;-60
2023/01/27 04:21:36;;;;;;;33.80;15.80;;;2.40;99.90;;;;;;5077375;28;20400;-60
2023/01/27 04:24:07;;;;;;;37.38;15.90;;;2.30;99.90;;;;;;5081827;28;20411;-57
2023/01/27 04:26:34;;;;;;;36.30;15.95;;;2.40;99.90;;;;;;5075323;28;20434;-58
2023/01/27 04:29:01;;;;;;;33.47;15.30;;;2.30;99.90;;;;;;5082467;28;20462;-58
2023/01/27 04:31:28;;;;;;;35.72;16.02;;;2.30;99.90;;;;;;5079843;28;20871;-62
2023/01/27 04:33:54;;;;;;;35.78;15.60;;;2.30;99.90;;;;;;5081356;28;20477;-62
2023/01/27 04:36:21;;;;;;;32.85;15.48;;;2.40;99.90;;;;;;5077306;28;20422;-58
2023/01/27 04:38:49;;;;;;;30.85;13.75;;;2.30;99.90;;;;;;5076917;28;20452;-60
2023/01/27 04:41:16;;;;;;;37.38;15.70;;;2.30;99.90;;;;;;5080243;28;20463;-59
2023/01/27 04:43:42;;;;;;;33.97;15.75;;;2.40;99.90;;;;;;5080601;28;20407;-54
2023/01/27 04:46:09;;;;;;;36.08;15.98;;;2.50;99.90;;;;;;5079218;28;20483;-60
2023/01/27 04:48:36;;;;;;;34.63;15.35;;;2.50;99.90;;;;;;5077705;28;20418;-60
2023/01/27 04:51:02;;;;;;;32.97;16.15;;;2.40;99.90;;;;;;5075157;28;20465;-60
2023/01/27 04:53:29;;;;;;;34.88;15.93;;;2.50;99.90;;;;;;5081181;28;20432;-60
2023/01/27 04:56:02;;;;;;;37.05;16.67;;;2.40;99.90;;;;;;5078665;28;20491;-61
2023/01/27 04:58:28;;;;;;;33.95;15.50;;;2.40;99.90;;;;;;5075228;28;20417;-59
2023/01/27 05:00:55;;;;;;;35.80;15.82;;;2.50;99.90;;;;;;5078976;28;20411;-58
2023/01/27 05:03:22;;;;;;;36.08;15.18;;;2.50;99.90;;;;;;5081005;28;20467;-57
2023/01/27 05:05:49;;;;;;;34.67;16.05;;;2.40;99.90;;;;;;5078688;28;20906;-60
2023/01/27 05:08:15;;;;;;;31.70;14.90;;;2.40;99.90;;;;;;5074161;28;20419;-60
2023/01/27 05:10:44;;;;;;;38.60;15.82;;;2.50;99.90;;;;;;5081502;28;20828;-61
2023/01/27 05:13:12;;;;;;;35.50;15.88;;;2.40;99.90;;;;;;5079059;28;20427;-59
2023/01/27 05:15:38;;;;;;;34.30;15.52;;;2.50;99.90;;;;;;5078332;28;20966;-61
2023/01/27 05:18:05;;;;;;;34.67;15.90;;;2.60;99.90;;;;;;5072752;28;20420;-60
2023/01/27 05:20:32;;;;;;;35.03;16.85;;;2.50;99.90;;;;;;5075882;28;20851;-59
2023/01/27 05:25:42;;;;;;;33.53;15.30;;;2.60;99.90;;;;;;5075210;28;20406;-61
2023/01/27 05:28:09;;;;;;;30.43;15.63;;;2.60;99.90;;;;;;5073411;28;20787;-61
2023/01/27 05:30:37;;;;;;;36.13;16.10;;;2.60;99.90;;;;;;5077301;28;20759;-59
2023/01/27 05:33:04;;;;;;;33.65;16.27;;;2.60;99.90;;;;;;5081923;28;20951;-58
2023/01/27 05:35:33;;;;;;;33.10;15.37;;;2.60;99.90;;;;;;5078032;28;20426;-59
2023/01/27 05:38:00;;;;;;;29.17;14.50;;;2.60;99.90;;;;;;5077341;28;20472;-61
2023/01/27 05:40:26;;;;;;;26.02;13.18;;;2.70;99.90;;;;;;5073796;28;20465;-59
2023/01/27 05:42:53;;;;;;;34.53;15.50;;;2.60;99.90;;;;;;5080975;28;20919;-62
2023/01/27 05:45:20;;;;;;;31.85;15.55;;;2.60;99.90;;;;;;5075201;28;20425;-58
2023/01/27 05:47:50;;;;;;;31.85;15.63;;;2.60;99.90;;;;;;5076894;28;20425;-60
2023/01/27 05:50:17;;;;;;;28.88;15.40;;;2.70;99.90;;;;;;5077256;28;20412;-62
2023/01/27 05:52:44;;;;;;;28.77;14.35;;;2.70;99.90;;;;;;5076702;28;20420;-62
2023/01/27 05:55:11;;;;;;;28.87;15.20;;;2.70;99.90;;;;;;5074788;28;20462;-63
2023/01/27 05:57:37;;;;;;;29.00;14.30;;;2.80;99.90;;;;;;5074899;28;20419;-63
2023/01/27 06:00:05;;;;;;;27.77;15.00;;;2.80;99.90;;;;;;5080270;28;20463;-62
2023/01/27 06:02:32;;;;;;;28.00;14.85;;;2.70;99.90;;;;;;5072151;28;20502;-62
2023/01/27 06:05:00;;;;;;;28.85;14.13;;;2.70;99.90;;;;;;5079437;28;20457;-62
2023/01/27 06:07:27;;;;;;;28.33;13.75;;;2.70;99.90;;;;;;5074573;28;20476;-62
2023/01/27 06:09:53;;;;;;;27.60;14.80;;;2.70;99.90;;;;;;5075688;28;20433;-59
2023/01/27 06:12:20;;;;;;;25.83;14.43;;;2.70;99.90;;;;;;5074173;28;20453;-62
2023/01/27 06:14:47;;;;;;;26.52;14.45;;;2.80;99.90;;;;;;5076478;28;20971;-62
2023/01/27 06:17:13;;;;;;;26.13;14.03;;;2.70;99.90;;;;;;5074828;28;20428;-63
2023/01/27 06:19:40;;;;;;;22.13;11.57;;;2.70;99.90;;;;;;5077465;28;20415;-62
2023/01/27 06:22:08;;;;;;;22.20;13.18;;;2.80;99.90;;;;;;5064504;28;20440;-62
2023/01/27 06:24:35;;;;;;;24.77;13.65;;;2.70;99.90;;;;;;5080276;28;20417;-61
2023/01/27 06:27:02;;;;;;;23.20;13.20;;;2.80;99.90;;;;;;5075258;28;20423;-62
2023/01/27 06:29:28;;;;;;;23.53;12.67;;;2.90;99.90;;;;;;5075143;28;20419;-64
2023/01/27 06:31:55;;;;;;;22.65;12.98;;;2.90;99.90;;;;;;5076405;28;20825;-62
2023/01/27 06:34:22;;;;;;;18.80;10.98;;;2.90;99.90;;;;;;5074217;28;20432;-63
2023/01/27 06:36:48;;;;;;;21.65;12.60;;;2.80;99.90;;;;;;5075414;28;20418;-62
2023/01/27 06:39:16;;;;;;;20.23;12.27;;;2.80;99.90;;;;;;5075043;28;20898;-62
2023/01/27 06:41:43;;;;;;;22.20;13.77;;;2.80;99.90;;;;;;5079944;28;20417;-62
2023/01/27 06:44:10;;;;;;;22.05;12.90;;;2.90;99.90;;;;;;5077582;28;20475;-61
2023/01/27 06:46:36;;;;;;;19.27;11.13;;;2.90;99.90;;;;;;5073277;28;20447;-60
2023/01/27 06:49:03;;;;;;;20.63;11.20;;;2.80;99.90;;;;;;5077397;28;20416;-59
2023/01/27 06:51:30;;;;;;;18.98;11.15;;;2.80;99.90;;;;;;5077723;28;20423;-62
2023/01/27 06:53:56;;;;;;;20.43;12.27;;;2.80;99.90;;;;;;5082041;28;20442;-62
2023/01/27 06:56:24;;;;;;;20.23;12.13;;;2.90;99.90;;;;;;5075717;28;20960;-62
2023/01/27 06:58:51;;;;;;;13.65;8.15;;;2.90;99.90;;;;;;5072365;28;20421;-62
2023/01/27 07:01:18;;;;;;;19.88;11.90;;;2.90;99.90;;;;;;5084176;28;20888;-62
2023/01/27 07:03:44;;;;;;;19.45;11.35;;;2.90;99.90;;;;;;5077425;28;20836;-62
2023/01/27 07:06:11;;;;;;;20.75;12.68;;;2.90;99.90;;;;;;5079868;28;20428;-61
2023/01/27 07:08:38;;;;;;;21.52;12.55;;;2.80;99.90;;;;;;5077352;28;20498;-61
2023/01/27 07:11:05;;;;;;;20.67;12.15;;;2.80;99.90;;;;;;5076891;28;20453;-60
2023/01/27 07:13:33;;;;;;;19.05;11.18;;;2.90;99.90;;;;;;5071810;28;20910;-61
2023/01/27 07:16:00;;;;;;;21.83;12.60;;;2.80;99.90;;;;;;5084218;28;20418;-62
2023/01/27 07:18:26;;;;;;;17.77;10.27;;;2.80;99.90;;;;;;5080159;28;20423;-61
2023/01/27 07:20:53;;;;;;;18.42;10.93;;;2.90;99.90;;;;;;5079129;28;21087;-61
2023/01/27 07:23:20;;;;;;;17.90;11.45;;;2.80;99.90;;;;;;5076970;28;20421;-61
2023/01/27 07:25:47;;;;;;;20.13;10.20;;;2.90;99.90;;;;;;5074266;28;20429;-62
2023/01/27 07:28:13;;;;;;;17.17;11.23;;;2.90;99.90;;;;;;5078934;28;20446;-62
2023/01/27 07:30:42;;;;;;;19.00;11.88;;;2.80;99.90;;;;;;5075649;28;20469;-63
2023/01/27 07:33:12;;;;;;;17.70;11.20;;;2.90;99.90;;;;;;5067393;28;20449;-63
2023/01/27 07:35:40;;;;;;;16.80;11.13;;;2.90;99.90;;;;;;5078688;28;20427;-62
2023/01/27 07:38:07;;;;;;;17.45;11.25;;;2.90;99.90;;;;;;5073018;28;20418;-63
2023/01/27 07:40:34;;;;;;;19.58;11.95;;;2.90;99.90;;;;;;5079638;28;20420;-63
2023/01/27 07:43:02;;;;;;;18.80;12.27;;;2.90;99.90;;;;;;5082770;28;20418;-62
2023/01/27 07:45:29;;;;;;;19.77;12.02;;;2.90;99.90;;;;;;5075909;28;20432;-63
2023/01/27 07:48:01;;;;;;;15.55;9.13;;;2.90;99.90;;;;;;5075235;28;20432;-63
2023/01/27 07:50:28;;;;;;;17.73;9.93;;;2.80;99.90;;;;;;5080220;28;20411;-63
2023/01/27 07:52:57;;;;;;;21.85;12.82;;;2.90;99.90;;;;;;5074482;28;20492;-63
2023/01/27 07:55:24;;;;;;;20.40;13.00;;;2.90;99.90;;;;;;5079661;28;20479;-63
2023/01/27 07:57:53;;;;;;;21.33;13.30;;;2.90;99.90;;;;;;5080130;28;20420;-63
2023/01/27 08:00:21;;;;;;;22.20;13.55;;;2.90;99.90;;;;;;5080726;28;20425;-64
2023/01/27 08:02:50;;;;;;;20.73;13.07;;;3.10;99.90;;;;;;5081417;28;20510;-63
2023/01/27 08:05:18;;;;;;;24.33;13.88;;;3.00;99.90;;;;;;5078630;28;20420;-65
2023/01/27 08:07:45;;;;;;;22.73;12.35;;;3.00;99.90;;;;;;5078947;28;20473;-63
2023/01/27 08:10:12;;;;;;;20.85;12.63;;;3.10;99.90;;;;;;5080294;28;20425;-62
2023/01/27 08:12:38;;;;;;;18.80;12.18;;;3.20;99.90;;;;;;5076578;28;20420;-63
2023/01/27 08:15:06;;;;;;;20.58;12.68;;;3.10;99.90;;;;;;5077745;28;20837;-63
2023/01/27 08:17:33;;;;;;;22.52;13.43;;;3.00;99.90;;;;;;5076603;28;20420;-62
2023/01/27 08:20:00;;;;;;;20.83;13.23;;;3.00;99.90;;;;;;5081643;28;20465;-63
2023/01/27 08:22:30;;;;;;;21.27;12.80;;;3.10;99.90;;;;;;5074471;28;20452;-63
2023/01/27 08:24:56;;;;;;;18.85;11.65;;;3.10;99.90;;;;;;5075479;28;20469;-61
2023/01/27 08:27:23;;;;;;;19.48;12.63;;;3.10;99.90;;;;;;5077553;28;20459;-62
2023/01/27 08:29:50;;;;;;;17.10;11.00;;;3.10;99.90;;;;;;5069857;28;20431;-62
2023/01/27 08:32:17;;;;;;;16.97;10.43;;;3.20;99.90;;;;;;5079697;28;20877;-62
2023/01/27 08:34:43;;;;;;;20.45;12.20;;;3.20;99.90;;;;;;5071419;28;20425;-63
2023/01/27 08:37:10;;;;;;;16.92;11.73;;;3.30;99.90;;;;;;5075879;28;20409;-60
2023/01/27 08:39:38;;;;;;;18.52;12.20;;;3.20;99.90;;;;;;5076490;28;20461;-63
2023/01/27 08:42:05;;;;;;;19.70;11.32;;;3.30;99.90;;;;;;5074667;28;20424;-64
2023/01/27 08:44:31;;;;;;;18.17;12.55;;;3.30;99.90;;;;;;5078149;28;20490;-65
2023/01/27 08:46:58;;;;;;;18.05;12.20;;;3.30;99.90;;;;;;5079222;28;20432;-66
2023/01/27 08:49:25;;;;;;;18.40;12.27;;;3.30;99.90;;;;;;5079791;28;20425;-63
2023/01/27 08:51:52;;;;;;;14.82;9.27;;;3.30;99.90;;;;;;5079328;28;20904;-62
2023/01/27 08:54:19;;;;;;;17.73;11.93;;;3.30;99.90;;;;;;5080278;28;20423;-61
2023/01/27 08:56:47;;;;;;;20.15;13.38;;;3.40;99.90;;;;;;5078794;28;21147;-62
2023/01/27 08:59:13;;;;;;;15.13;10.85;;;3.40;99.90;;;;;;5080669;28;20423;-64
2023/01/27 09:01:41;;;;;;;19.20;12.43;;;3.40;99.90;;;;;;5077815;28;20862;-63
2023/01/27 09:04:08;;;;;;;16.97;11.27;;;3.40;99.90;;;;;;5080458;28;20496;-64
2023/01/27 09:06:34;;;;;;;17.13;11.07;;;3.30;99.90;;;;;;5080653;28;20418;-65
2023/01/27 09:09:10;;;;;;;18.27;12.88;;;3.30;99.90;;;;;;5076294;28;20889;-62
2023/01/27 09:11:38;;;;;;;18.77;12.98;;;3.40;99.90;;;;;;5075281;28;20504;-61
2023/01/27 09:14:08;;;;;;;18.55;12.35;;;3.40;99.90;;;;;;5079026;28;21404;-62
2023/01/27 09:16:35;;;;;;;19.83;13.70;;;3.40;99.90;;;;;;5074344;28;20419;-64
2023/01/27 09:19:02;;;;;;;16.60;12.20;;;3.50;99.90;;;;;;5078656;28;20422;-63
2023/01/27 09:21:29;;;;;;;18.17;12.77;;;3.40;99.90;;;;;;5078018;28;20952;-62
2023/01/27 09:23:56;;;;;;;17.60;12.07;;;3.40;99.90;;;;;;5080073;28;20415;-63
2023/01/27 09:26:23;;;;;;;17.67;13.10;;;3.40;99.90;;;;;;5072332;28;20415;-60
2023/01/27 09:28:49;;;;;;;19.23;13.32;;;3.50;99.90;;;;;;5073569;28;20769;-60
2023/01/27 09:31:17;;;;;;;18.77;13.83;;;3.50;99.90;;;;;;5071996;28;20423;-61
2023/01/27 09:33:44;;;;;;;20.33;14.50;;;3.50;99.90;;;;;;5081587;28;20418;-60
2023/01/27 09:36:14;;;;;;;27.17;18.05;;;3.50;99.90;;;;;;5076716;28;20435;-61
2023/01/27 09:38:45;;;;;;;19.58;12.95;;;3.60;99.90;;;;;;5075349;28;20467;-67
2023/01/27 09:41:48;;;;;;;18.55;12.52;;;3.60;99.90;;;;;;5078551;28;20412;-64
2023/01/27 09:44:39;;;;;;;17.92;13.45;;;3.50;99.90;;;;;;5072490;28;20418;-61
2023/01/27 09:47:26;;;;;;;19.15;12.60;;;3.50;99.90;;;;;;5073352;28;20931;-65
2023/01/27 09:50:13;;;;;;;17.35;12.43;;;3.60;99.90;;;;;;5079500;28;20413;-65
2023/01/27 09:52:59;;;;;;;19.73;12.13;;;3.50;99.90;;;;;;5079584;28;20410;-63
2023/01/27 09:55:37;;;;;;;17.67;12.07;;;3.50;99.90;;;;;;5076797;28;20419;-64
2023/01/27 09:58:09;;;;;;;19.38;13.02;;;3.50;99.90;;;;;;5075146;28;20426;-63
2023/01/27 10:00:52;;;;;;;17.70;11.70;;;3.60;99.90;;;;;;5073533;28;20418;-61
2023/01/27 10:03:55;;;;;;;19.08;11.90;;;3.60;99.90;;;;;;5075119;28;20476;-64
2023/01/27 10:06:44;;;;;;;17.25;11.93;;;3.60;99.90;;;;;;5076116;28;20406;-63
2023/01/27 10:09:37;;;;;;;16.88;10.60;;;3.60;99.90;;;;;;5071033;28;20418;-63
2023/01/27 10:12:13;;;;;;;17.58;11.15;;;3.50;99.90;;;;;;5075229;28;20440;-63
2023/01/27 10:14:48;;;;;;;17.98;11.18;;;3.60;99.90;;;;;;5074524;28;20411;-63
2023/01/27 10:17:31;;;;;;;16.38;11.57;;;3.50;99.90;;;;;;5079834;28;20416;-62
2023/01/27 10:20:12;;;;;;;18.65;11.50;;;3.60;99.90;;;;;;5077903;28;20414;-62
2023/01/27 10:22:50;;;;;;;17.57;11.13;;;3.60;99.90;;;;;;5076753;28;20426;-65
2023/01/27 10:25:28;;;;;;;18.45;12.10;;;3.70;99.90;;;;;;5078124;28;20419;-64
2023/01/27 10:27:57;;;;;;;20.08;12.48;;;3.60;99.90;;;;;;5076711;28;20914;-58
2023/01/27 10:30:31;;;;;;;14.25;8.80;;;3.60;99.90;;;;;;5085423;28;20501;-60
2023/01/27 10:33:07;;;;;;;20.42;12.05;;;3.60;99.90;;;;;;5080653;28;20420;-60
2023/01/27 10:35:45;;;;;;;18.13;11.07;;;3.60;99.90;;;;;;5077932;28;20423;-61
2023/01/27 10:38:18;;;;;;;17.92;10.95;;;3.70;99.90;;;;;;5060245;28;20417;-60
2023/01/27 10:40:52;;;;;;;19.33;11.10;;;3.60;99.90;;;;;;5072315;28;20890;-62
2023/01/27 10:43:27;;;;;;;17.42;11.40;;;3.70;99.90;;;;;;5074281;28;20443;-62
2023/01/27 10:46:02;;;;;;;17.83;10.50;;;3.70;99.90;;;;;;5079991;28;20408;-63
2023/01/27 10:48:42;;;;;;;19.92;12.52;;;3.70;99.90;;;;;;5075155;28;20423;-63
2023/01/27 10:51:14;;;;;;;18.20;11.63;;;3.70;99.90;;;;;;5079753;28;20457;-63
2023/01/27 10:53:51;;;;;;;17.25;10.90;;;3.70;99.90;;;;;;5077890;28;20424;-65
2023/01/27 10:56:26;;;;;;;19.43;12.27;;;3.70;99.90;;;;;;5079199;28;20466;-65
2023/01/27 10:59:00;;;;;;;20.00;11.98;;;3.80;99.90;;;;;;5075175;28;20418;-64
2023/01/27 11:01:32;;;;;;;22.40;12.10;;;3.70;99.90;;;;;;5079571;28;20422;-62
2023/01/27 11:04:03;;;;;;;18.75;12.15;;;3.70;99.90;;;;;;5076467;28;20455;-63
2023/01/27 11:06:36;;;;;;;23.52;13.80;;;3.70;99.90;;;;;;5084545;28;20420;-60
2023/01/27 11:09:13;;;;;;;21.13;13.35;;;3.80;99.90;;;;;;5067350;28;21175;-62
2023/01/27 11:11:48;;;;;;;21.70;13.02;;;3.80;99.90;;;;;;5081580;28;20427;-63
2023/01/27 11:14:23;;;;;;;17.90;10.95;;;3.90;99.90;;;;;;5079939;28;20467;-62
2023/01/27 11:16:53;;;;;;;20.58;12.50;;;3.90;99.90;;;;;;5079456;28;20439;-62
2023/01/27 11:19:40;;;;;;;20.08;13.43;;;3.80;99.90;;;;;;5078233;28;20416;-61
2023/01/27 11:22:18;;;;;;;21.13;13.02;;;3.90;99.90;;;;;;5075502;28;20427;-60
2023/01/27 11:24:49;;;;;;;18.20;11.70;;;3.80;99.90;;;;;;5081516;28;20476;-63
2023/01/27 11:27:25;;;;;;;19.33;12.48;;;3.70;99.90;;;;;;5083059;28;20448;-61
2023/01/27 11:29:57;;;;;;;22.38;13.40;;;3.70;99.90;;;;;;5077531;28;20417;-61
2023/01/27 11:32:38;;;;;;;19.30;11.95;;;3.80;99.90;;;;;;5082069;28;20414;-62
2023/01/27 11:35:08;;;;;;;18.15;11.82;;;3.80;99.90;;;;;;5079122;28;20476;-62
2023/01/27 11:37:39;;;;;;;18.00;11.57;;;3.80;99.90;;;;;;5079027;28;20415;-65
2023/01/27 11:40:16;;;;;;;18.40;11.95;;;3.80;99.90;;;;;;5079083;28;20437;-61
2023/01/27 11:42:43;;;;;;;18.02;11.93;;;3.80;99.90;;;;;;5073833;28;20424;-64
2023/01/27 11:45:15;;;;;;;17.60;11.75;;;3.80;99.90;;;;;;5074569;28;20425;-60
2023/01/27 11:47:43;;;;;;;15.90;10.90;;;3.70;99.90;;;;;;5081298;28;20421;-63
2023/01/27 11:50:15;;;;;;;15.75;10.65;;;3.70;99.90;;;;;;5080342;28;20422;-62
2023/01/27 11:52:45;;;;;;;16.83;11.13;;;3.70;99.90;;;;;;5074433;28;20414;-61
2023/01/27 11:55:18;;;;;;;17.27;11.27;;;3.70;99.90;;;;;;5077964;28;20407;-62
2023/01/27 11:57:49;;;;;;;15.65;11.00;;;3.70;99.90;;;;;;5079105;28;20810;-63
2023/01/27 12:00:22;;;;;;;14.90;10.30;;;3.80;99.90;;;;;;5080347;28;20422;-62
2023/01/27 12:02:55;;;;;;;12.07;7.68;;;3.70;99.90;;;;;;5081773;28;20426;-61
2023/01/27 12:05:28;;;;;;;13.23;8.63;;;3.70;99.90;;;;;;5079691;28;20472;-64
2023/01/27 12:07:58;;;;;;;13.00;9.63;;;3.80;99.90;;;;;;5075891;28;20890;-64
2023/01/27 12:10:30;;;;;;;11.35;8.75;;;3.80;99.90;;;;;;5076469;28;20409;-63
2023/01/27 12:12:58;;;;;;;13.15;9.55;;;3.80;99.90;;;;;;5073042;28;20437;-62
2023/01/27 12:15:28;;;;;;;12.27;9.50;;;3.90;99.90;;;;;;5079772;28;20775;-58
2023/01/27 12:17:58;;;;;;;14.57;9.50;;;3.90;99.90;;;;;;5085214;28;21063;-65
2023/01/27 12:20:35;;;;;;;10.52;8.27;;;3.90;99.90;;;;;;5087721;28;20406;-64
2023/01/27 12:23:15;;;;;;;10.40;8.40;;;3.90;99.90;;;;;;5079344;28;20447;-63
2023/01/27 12:25:46;;;;;;;10.90;8.00;;;3.90;99.90;;;;;;5076043;28;20880;-61
2023/01/27 12:28:25;;;;;;;9.52;7.18;;;4.00;99.90;;;;;;5076440;28;20424;-61
2023/01/27 12:30:54;;;;;;;10.52;6.70;;;4.00;99.90;;;;;;5078847;28;20462;-62
2023/01/27 12:33:26;;;;;;;10.17;7.53;;;4.00;99.90;;;;;;5079465;28;20507;-63
2023/01/27 12:35:58;;;;;;;9.73;7.23;;;4.00;99.90;;;;;;5073522;28;20523;-65
2023/01/27 12:38:30;;;;;;;10.10;7.65;;;4.20;99.90;;;;;;5068285;28;20481;-64
2023/01/27 12:41:00;;;;;;;9.07;6.88;;;4.10;99.90;;;;;;5076394;28;20424;-64
2023/01/27 12:43:27;;;;;;;8.15;6.60;;;4.00;99.90;;;;;;5074084;28;20956;-64
2023/01/27 12:46:15;;;;;;;8.88;6.60;;;3.90;99.90;;;;;;5080217;28;20418;-64
2023/01/27 12:48:46;;;;;;;8.07;6.47;;;4.00;99.90;;;;;;5074289;28;20914;-63
2023/01/27 12:51:15;;;;;;;7.28;6.28;;;4.10;99.90;;;;;;5079226;28;20409;-65
2023/01/27 12:53:43;;;;;;;5.55;4.93;;;4.20;99.90;;;;;;5078405;28;20423;-63
2023/01/27 12:56:13;;;;;;;5.97;5.03;;;4.10;99.90;;;;;;5079490;28;20430;-61
2023/01/27 12:58:42;;;;;;;8.40;6.10;;;4.20;99.90;;;;;;5074834;28;20411;-62
2023/01/27 13:01:23;;;;;;;6.40;5.05;;;4.30;99.90;;;;;;5079216;28;20413;-63
2023/01/27 13:03:52;;;;;;;6.22;5.63;;;4.30;99.90;;;;;;5075767;28;20432;-66
2023/01/27 13:06:27;;;;;;;5.95;5.35;;;4.20;99.90;;;;;;5075143;28;20447;-67
2023/01/27 13:08:55;;;;;;;6.90;6.03;;;4.20;99.90;;;;;;5078753;28;20426;-65
2023/01/27 13:11:33;;;;;;;7.28;5.75;;;4.20;99.90;;;;;;5079408;28;20411;-65
2023/01/27 13:14:00;;;;;;;8.02;5.60;;;4.20;99.90;;;;;;5078140;28;20558;-64
2023/01/27 13:16:28;;;;;;;6.93;5.78;;;4.20;99.90;;;;;;5069970;28;20423;-64
2023/01/27 13:18:57;;;;;;;7.47;5.90;;;4.20;99.90;;;;;;5078451;28;20514;-65
2023/01/27 13:21:27;;;;;;;5.10;4.47;;;4.30;99.90;;;;;;5082684;28;20888;-62
2023/01/27 13:23:55;;;;;;;4.28;3.78;;;4.30;99.90;;;;;;5074986;28;20431;-61
2023/01/27 13:26:26;;;;;;;5.07;4.57;;;4.30;99.90;;;;;;5073827;28;20424;-63
2023/01/27 13:28:58;;;;;;;5.80;4.28;;;4.50;99.90;;;;;;5076494;28;20898;-62
2023/01/27 13:31:36;;;;;;;5.75;5.15;;;4.50;99.90;;;;;;5079956;28;20811;-66